Tisbury, Massachusetts
Current Conditions -  °F | °C
As of 11:53 AM on Saturday 22 Nov 2014 (Local Time) from KMVY Reporting Station
Clear Clear  
Wind Chill: 34°   Ceiling: Unl
Heat Index: 42°   Visibility: 10mi
Dew Point: 26°   Wind: 17mph
Humidity: 53%   Direction: 240°WSW
Pressure: 30.32"   Gusts: 31mph
Location:  41.4768°N, 70.6027°W
Report Text: KMVY 221653Z 24015G27KT 10SM CLR 06/M03 A3032 RMK AO2 PK WND 24027/1650 SLP268 T00561033
Loading
Personal Weather Stations






























Interactive Weather Map New forecast layout! Learn more

10-Day Weather Forecast

Advertisements
Track Severe Weather on mobile